createdAt,value
2018-10-01T00:00:38.501Z,5.70
2018-10-01T00:03:07.631Z,6.70
2018-10-01T00:05:36.955Z,5.83
2018-10-01T00:08:06.468Z,5.27
2018-10-01T00:10:35.897Z,5.53
2018-10-01T00:13:04.888Z,5.83
2018-10-01T00:15:34.039Z,5.50
2018-10-01T00:18:03.008Z,5.60
2018-10-01T00:20:37.630Z,5.20
2018-10-01T00:23:06.715Z,5.77
2018-10-01T00:25:35.938Z,4.63
2018-10-01T00:28:05.057Z,5.90
2018-10-01T00:30:34.090Z,5.60
2018-10-01T00:33:03.119Z,5.20
2018-10-01T00:35:32.304Z,4.97
2018-10-01T00:38:01.399Z,5.97
2018-10-01T00:40:30.438Z,5.00
2018-10-01T00:42:59.393Z,5.03
2018-10-01T00:45:28.411Z,4.93
2018-10-01T00:47:57.554Z,5.10
2018-10-01T00:50:26.534Z,5.73
2018-10-01T00:52:55.499Z,4.43
2018-10-01T00:55:24.882Z,5.40
2018-10-01T00:57:54.110Z,4.93
2018-10-01T01:00:24.265Z,4.83
2018-10-01T01:02:53.374Z,5.07
2018-10-01T01:05:22.451Z,4.77
2018-10-01T01:07:51.597Z,4.90
2018-10-01T01:10:21.173Z,4.73
2018-10-01T01:12:50.186Z,5.70
2018-10-01T01:15:19.147Z,5.50
2018-10-01T01:17:48.146Z,5.10
2018-10-01T01:20:17.201Z,4.90
2018-10-01T01:22:46.246Z,4.50
2018-10-01T01:25:15.502Z,5.00
2018-10-01T01:27:45.638Z,6.03
2018-10-01T01:30:14.756Z,5.27
2018-10-01T01:32:43.914Z,4.63
2018-10-01T01:35:13.088Z,4.93
2018-10-01T01:37:42.206Z,4.93
2018-10-01T01:40:11.345Z,4.50
2018-10-01T01:42:40.394Z,5.27
2018-10-01T01:45:09.481Z,4.40
2018-10-01T01:47:38.461Z,5.33
2018-10-01T01:50:07.687Z,4.63
2018-10-01T01:52:36.718Z,5.40
2018-10-01T01:55:06.154Z,4.87
2018-10-01T01:57:35.186Z,5.60
2018-10-01T02:00:04.730Z,4.40
2018-10-01T02:02:33.810Z,4.90
2018-10-01T02:05:02.830Z,4.53
2018-10-01T02:07:32.568Z,5.00
2018-10-01T02:10:01.688Z,4.47
2018-10-01T02:12:30.736Z,5.20
2018-10-01T02:14:59.947Z,4.77
2018-10-01T02:17:28.983Z,4.67
2018-10-01T02:19:57.926Z,3.90
2018-10-01T02:22:26.978Z,4.63
2018-10-01T02:24:55.926Z,4.87
2018-10-01T02:27:25.174Z,4.80
2018-10-01T02:29:54.269Z,4.30
2018-10-01T02:32:23.225Z,4.40
2018-10-01T02:34:52.198Z,4.53
2018-10-01T02:37:21.188Z,4.50
2018-10-01T02:39:50.391Z,4.83
2018-10-01T02:42:19.377Z,4.97
2018-10-01T02:44:48.314Z,4.50
2018-10-01T02:47:17.373Z,3.90
2018-10-01T02:49:46.341Z,4.70
2018-10-01T02:52:20.875Z,5.93
2018-10-01T02:54:50.048Z,4.07
2018-10-01T02:57:19.098Z,4.40
2018-10-01T02:59:48.069Z,4.40
2018-10-01T03:02:17.032Z,5.00
2018-10-01T03:04:46.136Z,4.80
2018-10-01T03:07:15.102Z,4.13
2018-10-01T03:09:44.085Z,4.33
2018-10-01T03:12:13.215Z,4.70
2018-10-01T03:14:42.126Z,3.63
2018-10-01T03:17:11.095Z,4.70
2018-10-01T03:19:40.088Z,4.53
2018-10-01T03:22:09.033Z,5.30
2018-10-01T03:24:38.156Z,4.40
2018-10-01T03:27:07.098Z,4.30
2018-10-01T03:29:36.206Z,4.77
2018-10-01T03:32:05.174Z,4.90
2018-10-01T03:34:34.166Z,4.53
2018-10-01T03:37:03.346Z,5.00
2018-10-01T03:39:32.377Z,5.00
2018-10-01T03:42:01.413Z,5.20
2018-10-01T03:44:30.495Z,4.63
2018-10-01T03:46:59.627Z,5.40
2018-10-01T03:49:28.582Z,5.03
2018-10-01T03:51:57.548Z,5.00
2018-10-01T03:54:26.526Z,4.63
2018-10-01T03:56:55.494Z,4.80
2018-10-01T03:59:24.497Z,6.10
2018-10-01T04:01:53.421Z,4.60
2018-10-01T04:04:22.487Z,4.67
2018-10-01T04:06:51.495Z,5.30
2018-10-01T04:09:20.483Z,4.47
2018-10-01T04:11:49.550Z,5.10
2018-10-01T04:14:18.713Z,4.30
2018-10-01T04:16:47.896Z,4.60
2018-10-01T04:19:17.039Z,4.60
2018-10-01T04:21:46.055Z,4.80
2018-10-01T04:24:15.210Z,4.27
2018-10-01T04:26:44.260Z,4.23
2018-10-01T04:29:14.298Z,4.53
2018-10-01T04:31:44.145Z,4.80
2018-10-01T04:34:13.324Z,4.23
2018-10-01T04:36:42.501Z,4.40
2018-10-01T04:39:13.316Z,3.93
2018-10-01T04:41:42.681Z,4.37
2018-10-01T04:44:11.977Z,4.13
2018-10-01T04:46:41.636Z,4.73
2018-10-01T04:49:11.329Z,3.93
2018-10-01T04:51:41.682Z,3.40
2018-10-01T04:54:10.699Z,3.90
2018-10-01T04:56:39.837Z,3.83
2018-10-01T04:59:09.647Z,3.83
2018-10-01T05:01:38.722Z,3.40
2018-10-01T05:04:07.701Z,3.80
2018-10-01T05:06:36.970Z,3.80
2018-10-01T05:09:08.021Z,3.80
2018-10-01T05:11:37.514Z,3.90
2018-10-01T05:14:07.046Z,2.90
2018-10-01T05:16:36.254Z,3.63
2018-10-01T05:19:05.870Z,3.87
2018-10-01T05:21:34.951Z,3.83
2018-10-01T05:24:04.267Z,4.17
2018-10-01T05:26:33.399Z,4.20
2018-10-01T05:29:02.464Z,3.10
2018-10-01T05:31:31.608Z,4.33
2018-10-01T05:34:00.585Z,4.20
2018-10-01T05:36:29.573Z,4.30
2018-10-01T05:38:58.750Z,4.80
2018-10-01T05:41:27.922Z,4.47
2018-10-01T05:43:57.045Z,4.70
2018-10-01T05:46:26.307Z,3.50
2018-10-01T05:48:55.417Z,2.97
2018-10-01T05:51:24.566Z,3.63
2018-10-01T05:53:53.656Z,3.13
2018-10-01T05:56:22.718Z,2.90
2018-10-01T05:58:51.774Z,3.60
2018-10-01T06:01:20.937Z,4.00
2018-10-01T06:03:50.083Z,3.30
2018-10-01T06:06:19.201Z,3.40
2018-10-01T06:08:48.369Z,3.97
2018-10-01T06:11:17.458Z,4.27
2018-10-01T06:13:46.466Z,4.87
2018-10-01T06:16:15.408Z,3.63
2018-10-01T06:18:44.403Z,3.23
2018-10-01T06:21:13.400Z,3.73
2018-10-01T06:23:42.454Z,3.30
2018-10-01T06:26:11.433Z,3.40
2018-10-01T06:28:40.613Z,3.87
2018-10-01T06:31:09.574Z,4.40
2018-10-01T06:33:38.524Z,3.43
2018-10-01T06:36:07.720Z,3.90
2018-10-01T06:38:36.877Z,3.57
2018-10-01T06:41:06.131Z,3.03
2018-10-01T06:43:35.291Z,3.13
2018-10-01T06:46:04.290Z,3.40
2018-10-01T06:48:33.511Z,3.20
2018-10-01T06:51:02.657Z,3.40
2018-10-01T06:53:31.669Z,3.30
2018-10-01T06:56:00.663Z,3.60
2018-10-01T06:58:29.778Z,3.60
2018-10-01T07:00:59.045Z,2.60
2018-10-01T07:03:28.144Z,2.73
2018-10-01T07:05:57.385Z,2.70
2018-10-01T07:08:26.262Z,3.00
2018-10-01T07:10:55.310Z,3.20
2018-10-01T07:13:24.342Z,3.77
2018-10-01T07:15:53.457Z,2.80
2018-10-01T07:18:23.706Z,4.90
2018-10-01T07:20:52.798Z,3.73
2018-10-01T07:23:22.103Z,4.53
2018-10-01T07:25:51.187Z,3.93
2018-10-01T07:28:20.394Z,4.23
2018-10-01T07:30:49.506Z,4.23
2018-10-01T07:33:19.610Z,3.83
2018-10-01T07:35:48.714Z,3.60
2018-10-01T07:38:18.090Z,3.37
2018-10-01T07:40:47.222Z,4.03
2018-10-01T07:43:16.290Z,3.90
2018-10-01T07:45:45.430Z,4.50
2018-10-01T07:48:14.458Z,3.27
2018-10-01T07:50:43.674Z,3.60
2018-10-01T07:53:12.657Z,2.93
2018-10-01T07:55:41.771Z,3.90
2018-10-01T07:58:10.799Z,3.83
2018-10-01T08:00:39.802Z,4.20
2018-10-01T08:03:08.838Z,3.20
2018-10-01T08:05:37.998Z,3.20
2018-10-01T08:08:07.151Z,3.50
2018-10-01T08:10:36.126Z,3.30
2018-10-01T08:13:05.359Z,3.30
2018-10-01T08:15:34.773Z,2.93
2018-10-01T08:18:05.211Z,3.23
2018-10-01T08:20:34.266Z,2.67
2018-10-01T08:23:03.422Z,3.00
2018-10-01T08:25:32.498Z,2.23
2018-10-01T08:28:01.558Z,2.77
2018-10-01T08:30:30.700Z,2.40
2018-10-01T08:32:59.668Z,2.47
2018-10-01T08:35:28.857Z,2.53
2018-10-01T08:37:58.263Z,2.90
2018-10-01T08:40:27.353Z,3.37
2018-10-01T08:42:56.346Z,2.70
2018-10-01T08:45:25.487Z,2.60
2018-10-01T08:47:54.475Z,3.43
2018-10-01T08:51:03.766Z,3.73
2018-10-01T08:53:39.461Z,3.00
2018-10-01T08:56:08.471Z,3.00
2018-10-01T08:58:37.490Z,3.23
2018-10-01T09:01:06.639Z,2.40
2018-10-01T09:03:35.838Z,2.70
2018-10-01T09:06:05.059Z,3.03
2018-10-01T09:08:35.790Z,2.53
2018-10-01T09:11:04.672Z,2.90
2018-10-01T09:13:33.670Z,2.73
2018-10-01T09:16:02.686Z,2.67
2018-10-01T09:18:31.714Z,2.43
2018-10-01T09:21:00.959Z,2.37
2018-10-01T09:23:29.991Z,2.27
2018-10-01T09:25:59.200Z,2.67
2018-10-01T09:28:28.404Z,2.40
2018-10-01T09:30:57.638Z,2.53
2018-10-01T09:33:26.683Z,2.00
2018-10-01T09:35:55.787Z,1.87
2018-10-01T09:38:25.052Z,2.17
2018-10-01T09:40:54.084Z,2.00
2018-10-01T09:43:23.183Z,2.10
2018-10-01T09:45:52.318Z,1.90
2018-10-01T09:48:21.603Z,2.00
2018-10-01T09:50:50.770Z,2.23
2018-10-01T09:53:19.840Z,2.13
2018-10-01T09:55:49.082Z,1.83
2018-10-01T09:58:18.305Z,2.00
2018-10-01T10:00:52.766Z,2.40
2018-10-01T10:03:21.882Z,2.50
2018-10-01T10:05:51.162Z,2.10
2018-10-01T10:08:20.138Z,1.43
2018-10-01T10:10:49.173Z,1.90
2018-10-01T10:13:18.274Z,1.60
2018-10-01T10:15:47.302Z,1.90
2018-10-01T10:18:16.579Z,2.60
2018-10-01T10:20:45.892Z,2.50
2018-10-01T10:23:14.941Z,2.33
2018-10-01T10:25:44.310Z,2.87
2018-10-01T10:28:13.683Z,2.70
2018-10-01T10:30:42.637Z,1.90
2018-10-01T10:33:11.725Z,2.07
2018-10-01T10:35:40.966Z,2.37
2018-10-01T10:38:10.152Z,2.70
2018-10-01T10:40:40.093Z,2.90
2018-10-01T10:43:09.182Z,4.13
2018-10-01T10:45:38.280Z,3.60
2018-10-01T10:48:07.747Z,3.33
2018-10-01T10:50:36.737Z,2.90
2018-10-01T10:53:05.814Z,2.83
2018-10-01T10:55:34.997Z,2.40
2018-10-01T10:58:04.233Z,3.10
2018-10-01T11:00:33.402Z,3.23
2018-10-01T11:03:08.214Z,2.63
2018-10-01T11:05:43.949Z,3.00
2018-10-01T11:08:13.056Z,3.40
2018-10-01T11:10:42.672Z,2.60
2018-10-01T11:13:11.821Z,2.70
2018-10-01T11:15:40.978Z,2.60
2018-10-01T11:18:10.805Z,2.63
2018-10-01T11:20:39.772Z,3.00
2018-10-01T11:23:08.951Z,3.50
2018-10-01T11:25:38.459Z,3.17
2018-10-01T11:28:07.458Z,2.50
2018-10-01T11:30:36.495Z,3.03
2018-10-01T11:33:05.496Z,3.43
2018-10-01T11:35:34.830Z,3.17
2018-10-01T11:38:03.902Z,2.17
2018-10-01T11:40:33.088Z,3.03
2018-10-01T11:43:02.225Z,2.07
2018-10-01T11:45:31.331Z,3.07
2018-10-01T11:48:00.432Z,2.10
2018-10-01T11:50:29.835Z,2.57
2018-10-01T11:52:58.881Z,2.93
2018-10-01T11:55:28.120Z,2.60
2018-10-01T11:57:57.170Z,2.10
2018-10-01T12:00:26.573Z,2.97
2018-10-01T12:02:55.994Z,2.20
2018-10-01T12:05:25.069Z,3.57
2018-10-01T12:07:54.173Z,2.27
2018-10-01T12:10:23.587Z,2.77
2018-10-01T12:12:52.541Z,2.90
2018-10-01T12:15:21.546Z,2.37
2018-10-01T12:17:50.614Z,2.90
2018-10-01T12:20:19.607Z,3.20
2018-10-01T12:22:48.742Z,3.00
2018-10-01T12:25:17.749Z,2.40
2018-10-01T12:27:47.057Z,3.20
2018-10-01T12:30:16.129Z,3.70
2018-10-01T12:32:45.134Z,3.20
2018-10-01T12:35:14.276Z,3.37
2018-10-01T12:37:43.136Z,3.57
2018-10-01T12:40:12.166Z,2.70
2018-10-01T12:42:41.195Z,4.10
2018-10-01T12:45:10.228Z,3.13
2018-10-01T12:47:39.385Z,3.90
2018-10-01T12:50:08.423Z,4.87
2018-10-01T12:52:37.372Z,3.10
2018-10-01T12:55:06.429Z,3.33
2018-10-01T12:57:35.732Z,3.20
2018-10-01T13:00:04.690Z,3.43
2018-10-01T13:02:33.815Z,3.43
2018-10-01T13:05:03.240Z,3.33
2018-10-01T13:07:32.433Z,3.40
2018-10-01T13:10:01.763Z,3.00
2018-10-01T13:12:30.771Z,2.67
2018-10-01T13:14:59.833Z,3.97
2018-10-01T13:17:29.493Z,3.30
2018-10-01T13:19:58.631Z,3.30
2018-10-01T13:22:27.631Z,3.40
2018-10-01T13:24:56.729Z,2.43
2018-10-01T13:27:25.818Z,2.17
2018-10-01T13:29:54.911Z,2.10
2018-10-01T13:32:23.942Z,2.10
2018-10-01T13:34:53.083Z,2.37
2018-10-01T13:37:23.379Z,2.10
2018-10-01T13:39:52.555Z,2.80
2018-10-01T13:42:21.825Z,2.77
2018-10-01T13:44:50.842Z,2.90
2018-10-01T13:47:19.990Z,2.03
2018-10-01T13:49:49.061Z,2.13
2018-10-01T13:52:18.258Z,3.00
2018-10-01T13:54:47.466Z,2.00
2018-10-01T13:57:16.838Z,2.03
2018-10-01T13:59:46.214Z,3.10
2018-10-01T14:02:15.534Z,2.40
2018-10-01T14:04:44.562Z,2.90
2018-10-01T14:07:13.618Z,2.10
2018-10-01T14:09:42.567Z,1.97
2018-10-01T14:12:12.010Z,1.93
2018-10-01T14:14:42.068Z,2.03
2018-10-01T14:17:11.175Z,2.80
2018-10-01T14:19:40.368Z,2.03
2018-10-01T14:22:09.790Z,2.33
2018-10-01T14:24:38.903Z,2.10
2018-10-01T14:27:07.966Z,2.10
2018-10-01T14:29:37.038Z,2.00
2018-10-01T14:32:06.010Z,2.57
2018-10-01T14:34:35.082Z,2.67
2018-10-01T14:37:04.112Z,2.80
2018-10-01T14:39:33.133Z,2.10
2018-10-01T14:42:03.014Z,2.40
2018-10-01T14:44:32.046Z,2.10
2018-10-01T14:47:01.215Z,2.40
2018-10-01T14:49:30.504Z,2.43
2018-10-01T14:51:59.585Z,2.63
2018-10-01T14:54:28.531Z,2.07
2018-10-01T14:56:57.827Z,2.50
2018-10-01T14:59:26.886Z,2.70
2018-10-01T15:01:55.897Z,2.70
2018-10-01T15:04:24.893Z,2.10
2018-10-01T15:06:53.960Z,2.60
2018-10-01T15:09:23.082Z,2.67
2018-10-01T15:11:52.169Z,2.23
2018-10-01T15:14:21.191Z,2.60
2018-10-01T15:16:50.316Z,2.73
2018-10-01T15:19:20.402Z,3.43
2018-10-01T15:21:49.405Z,2.50
2018-10-01T15:24:18.557Z,2.40
2018-10-01T15:26:47.606Z,2.37
2018-10-01T15:29:16.723Z,2.30
2018-10-01T15:31:45.905Z,2.47
2018-10-01T15:34:15.100Z,2.83
2018-10-01T15:36:44.102Z,2.93
2018-10-01T15:39:13.206Z,2.50
2018-10-01T15:41:42.203Z,2.87
2018-10-01T15:44:11.206Z,2.90
2018-10-01T15:46:40.222Z,2.50
2018-10-01T15:49:09.248Z,2.70
2018-10-01T15:51:38.398Z,2.53
2018-10-01T15:54:07.426Z,3.30
2018-10-01T15:56:36.491Z,2.57
2018-10-01T15:59:05.610Z,3.17
2018-10-01T16:01:34.632Z,3.00
2018-10-01T16:04:04.135Z,2.50
2018-10-01T16:06:33.334Z,2.97
2018-10-01T16:09:02.362Z,2.60
2018-10-01T16:11:31.450Z,2.63
2018-10-01T16:14:00.509Z,2.77
2018-10-01T16:16:29.487Z,3.43
2018-10-01T16:18:58.499Z,3.40
2018-10-01T16:21:27.466Z,3.33
2018-10-01T16:23:56.435Z,3.77
2018-10-01T16:26:25.914Z,3.33
2018-10-01T16:28:55.277Z,3.87
2018-10-01T16:31:24.447Z,2.77
2018-10-01T16:33:53.602Z,2.30
2018-10-01T16:36:22.778Z,2.93
2018-10-01T16:38:51.742Z,2.60
2018-10-01T16:41:20.731Z,2.47
2018-10-01T16:43:49.735Z,2.10
2018-10-01T16:46:18.763Z,2.43
2018-10-01T16:48:47.938Z,2.63
2018-10-01T16:51:16.954Z,2.37
2018-10-01T16:53:46.077Z,2.60
2018-10-01T16:56:15.556Z,3.10
2018-10-01T16:58:47.821Z,2.60
2018-10-01T17:01:17.085Z,2.60
2018-10-01T17:03:46.185Z,2.83
2018-10-01T17:06:15.511Z,3.17
2018-10-01T17:08:44.658Z,2.60
2018-10-01T17:11:13.815Z,3.27
2018-10-01T17:13:42.778Z,2.80
2018-10-01T17:16:11.761Z,3.87
2018-10-01T17:18:40.846Z,4.93
2018-10-01T17:21:09.946Z,3.50
2018-10-01T17:23:38.945Z,2.70
2018-10-01T17:26:07.945Z,3.07
2018-10-01T17:28:37.039Z,3.80
2018-10-01T17:31:06.110Z,3.00
2018-10-01T17:33:35.202Z,2.90
2018-10-01T17:36:04.306Z,3.40
2018-10-01T17:38:33.390Z,3.47
2018-10-01T17:41:02.815Z,3.73
2018-10-01T17:43:31.872Z,3.77
2018-10-01T17:46:00.982Z,4.00
2018-10-01T17:48:30.242Z,3.50
2018-10-01T17:50:59.263Z,4.03
2018-10-01T17:53:28.289Z,4.40
2018-10-01T17:55:57.362Z,4.53
2018-10-01T17:58:26.533Z,3.90
2018-10-01T18:00:57.263Z,4.17
2018-10-01T18:03:26.386Z,3.97
2018-10-01T18:05:55.524Z,3.97
2018-10-01T18:08:24.729Z,4.70
2018-10-01T18:10:53.752Z,4.20
2018-10-01T18:13:23.037Z,4.10
2018-10-01T18:15:52.215Z,4.20
2018-10-01T18:18:21.373Z,4.20
2018-10-01T18:20:50.478Z,3.87
2018-10-01T18:23:19.638Z,3.87
2018-10-01T18:25:48.776Z,4.00
2018-10-01T18:28:18.544Z,4.40
2018-10-01T18:30:47.494Z,4.37
2018-10-01T18:33:16.523Z,4.90
2018-10-01T18:35:45.534Z,4.37
2018-10-01T18:38:14.701Z,4.60
2018-10-01T18:40:43.702Z,4.73
2018-10-01T18:43:12.804Z,4.90
2018-10-01T18:45:42.143Z,4.10
2018-10-01T18:48:11.588Z,4.20
2018-10-01T18:50:40.695Z,4.17
2018-10-01T18:53:09.954Z,4.37
2018-10-01T18:55:39.570Z,3.63
2018-10-01T18:58:08.862Z,5.00
2018-10-01T19:00:38.228Z,3.90
2018-10-01T19:03:07.366Z,4.03
2018-10-01T19:05:36.610Z,3.60
2018-10-01T19:08:05.655Z,3.83
2018-10-01T19:10:34.986Z,4.57
2018-10-01T19:13:03.934Z,3.03
2018-10-01T19:15:33.105Z,3.80
2018-10-01T19:18:02.248Z,3.30
2018-10-01T19:20:31.330Z,2.77
2018-10-01T19:23:00.470Z,3.77
2018-10-01T19:25:29.698Z,3.20
2018-10-01T19:27:58.842Z,3.90
2018-10-01T19:30:28.005Z,2.90
2018-10-01T19:32:56.949Z,3.80
2018-10-01T19:35:25.901Z,3.90
2018-10-01T19:37:55.086Z,3.20
2018-10-01T19:40:24.234Z,3.60
2018-10-01T19:42:53.246Z,3.90
2018-10-01T19:45:22.323Z,3.80
2018-10-01T19:47:51.214Z,3.70
2018-10-01T19:50:20.247Z,3.73
2018-10-01T19:52:49.664Z,3.33
2018-10-01T19:55:18.566Z,4.17
2018-10-01T19:57:47.529Z,3.10
2018-10-01T20:00:16.636Z,2.93
2018-10-01T20:02:45.688Z,3.90
2018-10-01T20:05:14.797Z,3.40
2018-10-01T20:07:44.083Z,4.17
2018-10-01T20:10:13.291Z,3.27
2018-10-01T20:12:42.593Z,4.43
2018-10-01T20:15:11.816Z,3.70
2018-10-01T20:17:41.040Z,4.53
2018-10-01T20:20:10.239Z,3.70
2018-10-01T20:22:39.464Z,4.73
2018-10-01T20:25:08.623Z,4.00
2018-10-01T20:27:37.820Z,4.13
2018-10-01T20:30:07.866Z,4.73
2018-10-01T20:32:36.806Z,3.77
2018-10-01T20:35:06.062Z,4.20
2018-10-01T20:37:35.086Z,4.70
2018-10-01T20:40:04.159Z,4.57
2018-10-01T20:42:33.205Z,4.83
2018-10-01T20:45:02.506Z,4.13
2018-10-01T20:47:31.723Z,3.87
2018-10-01T20:50:01.053Z,5.13
2018-10-01T20:52:30.180Z,5.03
2018-10-01T20:54:59.094Z,4.40
2018-10-01T20:57:28.147Z,4.60
2018-10-01T20:59:57.253Z,5.30
2018-10-01T21:02:26.402Z,5.33
2018-10-01T21:04:55.441Z,4.67
2018-10-01T21:07:24.669Z,5.00
2018-10-01T21:09:53.695Z,4.43
2018-10-01T21:12:23.037Z,5.10
2018-10-01T21:14:52.144Z,4.93
2018-10-01T21:17:21.206Z,4.67
2018-10-01T21:19:50.330Z,4.63
2018-10-01T21:22:19.468Z,4.33
2018-10-01T21:24:48.505Z,4.83
2018-10-01T21:27:17.604Z,4.40
2018-10-01T21:29:46.622Z,5.83
2018-10-01T21:32:15.636Z,5.00
2018-10-01T21:34:44.642Z,4.40
2018-10-01T21:37:13.598Z,4.33
2018-10-01T21:40:15.465Z,5.50
2018-10-01T21:42:44.558Z,6.20
2018-10-01T21:45:14.837Z,4.10
2018-10-01T21:47:43.954Z,4.10
2018-10-01T21:50:13.087Z,4.33
2018-10-01T21:52:42.136Z,5.63
2018-10-01T21:55:11.315Z,4.80
2018-10-01T21:57:40.294Z,4.80
2018-10-01T22:00:10.155Z,5.03
2018-10-01T22:02:39.157Z,6.10
2018-10-01T22:05:08.394Z,5.40
2018-10-01T22:07:37.600Z,5.43
2018-10-01T22:10:06.592Z,5.20
2018-10-01T22:12:35.645Z,6.17
2018-10-01T22:15:04.655Z,6.17
2018-10-01T22:17:33.896Z,5.63
2018-10-01T22:20:02.842Z,5.90
2018-10-01T22:22:31.801Z,5.30
2018-10-01T22:25:00.791Z,5.10
2018-10-01T22:27:29.753Z,5.33
2018-10-01T22:29:58.773Z,5.93
2018-10-01T22:32:27.932Z,6.27
2018-10-01T22:34:57.002Z,5.80
2018-10-01T22:37:26.033Z,5.50
2018-10-01T22:39:54.992Z,5.17
2018-10-01T22:42:23.961Z,5.60
2018-10-01T22:44:53.022Z,5.57
2018-10-01T22:47:22.003Z,5.90
2018-10-01T22:49:51.008Z,6.10
2018-10-01T22:52:20.104Z,5.27
2018-10-01T22:54:49.120Z,5.60
2018-10-01T22:57:18.246Z,5.03
2018-10-01T22:59:47.231Z,5.53
2018-10-01T23:02:16.233Z,6.20
2018-10-01T23:04:45.461Z,5.53
2018-10-01T23:07:14.483Z,5.13
2018-10-01T23:09:43.641Z,4.87
2018-10-01T23:12:12.638Z,4.83
2018-10-01T23:14:41.615Z,6.33
2018-10-01T23:17:10.978Z,5.10
2018-10-01T23:19:41.129Z,4.90
2018-10-01T23:22:10.246Z,4.97
2018-10-01T23:24:39.246Z,4.47
2018-10-01T23:27:08.194Z,4.83
2018-10-01T23:29:37.205Z,4.83
2018-10-01T23:32:06.265Z,5.50
2018-10-01T23:34:35.250Z,5.70
2018-10-01T23:37:04.380Z,4.90
2018-10-01T23:39:33.366Z,5.23
2018-10-01T23:42:02.522Z,5.63
2018-10-01T23:44:31.710Z,4.87
2018-10-01T23:47:00.709Z,4.43
2018-10-01T23:49:29.744Z,4.67
2018-10-01T23:51:58.734Z,4.80
2018-10-01T23:54:27.702Z,4.57
2018-10-01T23:56:56.730Z,4.77
2018-10-01T23:59:25.802Z,4.50
